Time;durP1;ratioP1;P1;durP2;ratioP2;P2;SDS_P1;SDS_P2;PMS_P1;PMS_P2;Temp;Humidity;BMP_temperature;BMP_pressure;BME280_temperature;BME280_humidity;BME280_pressure;Samples;Min_cycle;Max_cycle;Signal;HPM_P1;HPM_P2
2022/03/19 00:00:30;;;;;;;2.27;2.07;;;6.00;99.90;;;;;;5031224;28;20405;-67
2022/03/19 00:02:55;;;;;;;5.80;1.77;;;6.00;99.90;;;;;;5030778;28;20176;-68
2022/03/19 00:05:21;;;;;;;3.60;2.10;;;6.00;99.90;;;;;;5030707;28;20226;-68
2022/03/19 00:07:47;;;;;;;4.10;1.40;;;5.90;99.90;;;;;;5030708;28;20198;-68
2022/03/19 00:10:14;;;;;;;5.60;2.33;;;5.90;99.90;;;;;;5030908;28;20164;-68
2022/03/19 00:12:40;;;;;;;3.70;2.20;;;5.90;99.90;;;;;;5030768;28;20266;-68
2022/03/19 00:15:07;;;;;;;4.73;3.10;;;5.90;99.90;;;;;;5030508;28;20398;-68
2022/03/19 00:17:32;;;;;;;2.63;2.43;;;5.80;99.90;;;;;;5032502;28;20341;-68
2022/03/19 00:19:58;;;;;;;5.37;1.70;;;5.80;99.90;;;;;;5034377;28;20432;-67
2022/03/19 00:22:23;;;;;;;2.20;1.97;;;5.80;99.90;;;;;;5016477;28;20171;-67
2022/03/19 00:24:49;;;;;;;1.77;1.67;;;5.70;99.90;;;;;;5034163;28;20183;-68
2022/03/19 00:27:15;;;;;;;2.13;1.90;;;5.70;99.90;;;;;;5034298;28;20192;-68
2022/03/19 00:29:40;;;;;;;3.60;2.30;;;5.70;99.90;;;;;;5034309;28;20164;-68
2022/03/19 00:32:06;;;;;;;3.23;1.90;;;5.60;99.90;;;;;;5033969;28;20168;-68
2022/03/19 00:34:32;;;;;;;3.30;3.00;;;5.60;99.90;;;;;;5033862;28;20668;-68
2022/03/19 00:36:58;;;;;;;2.20;2.00;;;5.60;99.90;;;;;;5033857;28;20172;-68
2022/03/19 00:39:24;;;;;;;3.17;1.90;;;5.50;99.90;;;;;;5034002;28;20955;-68
2022/03/19 00:41:52;;;;;;;6.43;2.37;;;5.50;99.90;;;;;;5033773;28;20402;-68
2022/03/19 00:44:21;;;;;;;4.80;1.90;;;5.50;99.90;;;;;;5034020;28;20792;-68
2022/03/19 00:46:47;;;;;;;3.27;2.17;;;5.40;99.90;;;;;;5033653;28;20450;-68
2022/03/19 00:49:12;;;;;;;5.70;1.90;;;5.40;99.90;;;;;;5033610;28;20445;-68
2022/03/19 00:51:39;;;;;;;1.60;1.50;;;5.40;99.90;;;;;;5033642;28;20171;-68
2022/03/19 00:54:04;;;;;;;5.27;1.73;;;5.30;99.90;;;;;;5033861;28;20172;-68
2022/03/19 00:56:30;;;;;;;2.77;1.90;;;5.30;99.90;;;;;;5033778;28;20422;-68
2022/03/19 00:58:55;;;;;;;2.30;2.10;;;5.20;99.90;;;;;;5033588;28;20241;-67
2022/03/19 01:01:21;;;;;;;2.57;2.37;;;5.10;99.90;;;;;;5034017;28;20530;-67
2022/03/19 01:03:46;;;;;;;4.77;2.07;;;5.10;99.90;;;;;;5033570;28;20280;-67
2022/03/19 01:06:11;;;;;;;2.53;1.33;;;5.10;99.90;;;;;;5033429;28;20203;-69
2022/03/19 01:08:37;;;;;;;1.50;1.40;;;5.00;99.90;;;;;;5033899;28;20195;-67
2022/03/19 01:11:03;;;;;;;2.80;1.90;;;5.00;99.90;;;;;;5033594;28;20167;-67
2022/03/19 01:13:28;;;;;;;2.10;1.47;;;4.90;99.90;;;;;;5033514;28;20317;-67
2022/03/19 01:15:54;;;;;;;3.33;2.13;;;4.90;99.90;;;;;;5033261;28;20167;-67
2022/03/19 01:18:19;;;;;;;3.20;2.53;;;4.90;99.90;;;;;;5033154;28;20188;-67
2022/03/19 01:20:45;;;;;;;5.37;1.77;;;4.90;99.90;;;;;;5015360;28;20268;-67
2022/03/19 01:23:10;;;;;;;2.37;1.43;;;4.80;99.90;;;;;;5033127;28;20202;-67
2022/03/19 01:25:35;;;;;;;5.47;1.80;;;4.80;99.90;;;;;;5033250;28;20195;-67
2022/03/19 01:28:01;;;;;;;5.57;2.53;;;4.80;99.90;;;;;;5032636;28;20195;-67
2022/03/19 01:30:26;;;;;;;3.30;1.97;;;4.80;99.90;;;;;;5033130;28;20172;-67
2022/03/19 01:32:52;;;;;;;4.13;2.77;;;4.70;99.90;;;;;;5032885;28;20545;-67
2022/03/19 01:35:19;;;;;;;2.97;1.83;;;4.70;99.90;;;;;;5032836;28;20171;-67
2022/03/19 01:37:45;;;;;;;4.10;1.47;;;4.60;99.90;;;;;;5032859;28;20716;-67
2022/03/19 01:40:12;;;;;;;4.80;2.07;;;4.60;99.90;;;;;;5033003;28;20402;-67
2022/03/19 01:42:42;;;;;;;2.63;1.40;;;4.50;99.90;;;;;;5032615;28;20429;-67
2022/03/19 01:45:22;;;;;;;8.53;1.53;;;4.50;99.90;;;;;;5032774;28;20454;-67
2022/03/19 01:47:48;;;;;;;7.90;2.33;;;4.50;99.90;;;;;;5046820;22;20758;-72
2022/03/19 01:50:14;;;;;;;1.90;1.70;;;4.40;99.90;;;;;;5032140;28;20489;-73
2022/03/19 01:52:41;;;;;;;6.30;1.97;;;4.30;99.90;;;;;;5032800;28;20493;-73
2022/03/19 01:55:08;;;;;;;2.23;1.97;;;4.30;99.90;;;;;;5032717;28;20407;-73
2022/03/19 01:57:37;;;;;;;2.23;1.53;;;4.30;99.90;;;;;;5032605;28;20431;-73
2022/03/19 02:00:04;;;;;;;5.87;2.10;;;4.30;99.90;;;;;;5012823;28;20407;-73
2022/03/19 02:02:30;;;;;;;4.13;2.13;;;4.20;99.90;;;;;;5012597;28;20462;-73
2022/03/19 02:04:58;;;;;;;6.63;2.23;;;4.30;99.90;;;;;;5012645;28;20450;-72
2022/03/19 02:07:23;;;;;;;3.33;2.33;;;4.20;99.90;;;;;;5012801;28;20415;-73
2022/03/19 02:09:48;;;;;;;2.97;1.93;;;4.20;99.90;;;;;;5012587;28;20430;-73
2022/03/19 02:12:14;;;;;;;8.40;2.07;;;4.20;99.90;;;;;;5012522;28;20230;-72
2022/03/19 02:14:40;;;;;;;2.83;2.17;;;4.20;99.90;;;;;;5012692;28;20164;-73
2022/03/19 02:17:07;;;;;;;2.43;1.63;;;4.20;99.90;;;;;;5012442;28;20183;-72
2022/03/19 02:19:33;;;;;;;18.87;2.90;;;4.20;99.90;;;;;;5012451;28;20427;-72
2022/03/19 02:21:59;;;;;;;5.20;2.40;;;4.10;99.90;;;;;;5012889;28;20427;-73
2022/03/19 02:27:10;;;;;;;3.17;2.90;;;4.00;99.90;;;;;;5012899;28;20775;-73
2022/03/19 02:29:35;;;;;;;1.73;1.57;;;4.00;99.90;;;;;;5012351;28;20510;-73
2022/03/19 02:32:04;;;;;;;2.90;2.00;;;4.00;99.90;;;;;;5012336;28;20188;-72
2022/03/19 02:34:30;;;;;;;1.60;1.50;;;4.00;99.90;;;;;;5012337;28;20172;-72
2022/03/19 02:36:55;;;;;;;3.63;2.43;;;3.90;99.90;;;;;;5012233;28;20431;-72
2022/03/19 02:39:25;;;;;;;4.27;2.90;;;3.90;99.90;;;;;;5011594;28;20447;-72
2022/03/19 02:41:51;;;;;;;2.90;1.70;;;3.90;99.90;;;;;;5012021;28;20165;-72
2022/03/19 02:44:19;;;;;;;8.40;3.00;;;4.00;99.90;;;;;;5011989;28;20427;-72
2022/03/19 02:46:50;;;;;;;3.10;2.67;;;3.90;99.90;;;;;;5011870;28;20468;-72
2022/03/19 02:49:17;;;;;;;3.93;2.13;;;3.80;99.90;;;;;;5011937;28;20447;-72
2022/03/19 02:51:44;;;;;;;3.33;2.10;;;3.80;99.90;;;;;;5011927;28;20498;-72
2022/03/19 02:54:12;;;;;;;3.07;2.40;;;3.80;99.90;;;;;;5011837;28;20532;-72
2022/03/19 02:56:40;;;;;;;2.60;2.03;;;3.80;99.90;;;;;;5010595;28;20439;-73
2022/03/19 02:59:13;;;;;;;3.17;2.67;;;3.80;99.90;;;;;;5011972;28;20546;-72
2022/03/19 03:01:39;;;;;;;1.53;1.43;;;3.70;99.90;;;;;;5011770;28;20439;-73
2022/03/19 03:04:05;;;;;;;5.10;1.97;;;3.70;99.90;;;;;;5011935;28;20422;-73
2022/03/19 03:06:36;;;;;;;5.13;3.00;;;3.70;99.90;;;;;;5011010;28;20447;-73
2022/03/19 03:09:03;;;;;;;3.20;2.23;;;3.60;99.90;;;;;;4994157;28;20191;-73
2022/03/19 03:11:28;;;;;;;9.80;2.50;;;3.60;99.90;;;;;;5011786;28;20411;-73
2022/03/19 03:13:54;;;;;;;4.27;2.47;;;3.60;99.90;;;;;;5011672;28;20411;-72
2022/03/19 03:16:20;;;;;;;6.87;3.30;;;3.50;99.90;;;;;;5011518;28;20200;-73
2022/03/19 03:18:46;;;;;;;2.73;2.10;;;3.60;99.90;;;;;;5011615;28;20187;-73
2022/03/19 03:21:11;;;;;;;3.43;2.50;;;3.50;99.90;;;;;;5011458;28;20422;-73
2022/03/19 03:23:37;;;;;;;3.40;2.37;;;3.60;99.90;;;;;;5011780;28;20415;-73
2022/03/19 03:26:02;;;;;;;4.90;2.67;;;3.50;99.90;;;;;;5011781;28;20204;-73
2022/03/19 03:28:28;;;;;;;1.80;1.70;;;3.50;99.90;;;;;;5011661;28;20590;-73
2022/03/19 03:30:53;;;;;;;4.00;2.50;;;3.50;99.90;;;;;;5011609;28;20777;-73
2022/03/19 03:33:19;;;;;;;1.93;1.67;;;3.50;99.90;;;;;;5011477;28;20160;-73
2022/03/19 03:35:45;;;;;;;3.70;2.40;;;3.40;99.90;;;;;;5011342;28;20210;-73
2022/03/19 03:38:10;;;;;;;4.07;1.67;;;3.40;99.90;;;;;;5011493;28;20228;-72
2022/03/19 03:40:36;;;;;;;5.70;3.83;;;3.40;99.90;;;;;;5011637;28;20179;-72
2022/03/19 03:43:01;;;;;;;3.83;3.13;;;3.40;99.90;;;;;;5011688;28;20256;-72
2022/03/19 03:45:29;;;;;;;8.83;2.17;;;3.30;99.90;;;;;;5011347;28;20287;-72
2022/03/19 03:47:55;;;;;;;3.53;2.37;;;3.30;99.90;;;;;;5011437;28;20220;-73
2022/03/19 03:50:20;;;;;;;2.27;2.03;;;3.20;99.90;;;;;;5012960;28;20408;-73
2022/03/19 03:52:46;;;;;;;3.63;2.40;;;3.20;99.90;;;;;;5017449;28;20231;-73
2022/03/19 03:55:13;;;;;;;4.83;2.40;;;3.20;99.90;;;;;;5019088;28;20176;-72
2022/03/19 03:57:39;;;;;;;5.00;2.27;;;3.20;99.90;;;;;;5019285;28;20164;-73
2022/03/19 04:00:08;;;;;;;3.27;2.60;;;3.10;99.90;;;;;;5015191;28;20422;-72
2022/03/19 04:02:34;;;;;;;3.80;2.37;;;3.10;99.90;;;;;;5014908;28;20169;-72
2022/03/19 04:05:00;;;;;;;3.70;2.10;;;3.10;99.90;;;;;;5014868;28;20554;-72
2022/03/19 04:07:27;;;;;;;2.70;1.70;;;3.00;99.90;;;;;;5014978;28;20498;-72
2022/03/19 04:09:55;;;;;;;9.40;3.03;;;2.90;99.90;;;;;;5014952;28;20176;-72
2022/03/19 04:12:22;;;;;;;2.00;1.80;;;2.90;99.90;;;;;;5014843;28;20414;-72
2022/03/19 04:14:48;;;;;;;2.10;2.00;;;2.90;99.90;;;;;;5014667;28;20407;-72
2022/03/19 04:17:14;;;;;;;1.50;1.40;;;2.90;99.90;;;;;;5014859;28;20410;-72
2022/03/19 04:19:40;;;;;;;3.23;2.90;;;2.90;99.90;;;;;;5014912;28;20507;-72
2022/03/19 04:22:05;;;;;;;1.70;1.60;;;2.80;99.90;;;;;;4997153;28;20173;-72
2022/03/19 04:24:30;;;;;;;3.53;2.47;;;2.80;99.90;;;;;;5014553;28;20177;-71
2022/03/19 04:26:57;;;;;;;3.10;1.40;;;2.80;99.90;;;;;;5014738;28;20752;-74
2022/03/19 04:29:23;;;;;;;2.07;1.87;;;2.70;99.90;;;;;;5014550;28;20267;-71
2022/03/19 04:31:48;;;;;;;2.20;1.83;;;2.70;99.90;;;;;;5014450;28;20570;-73
2022/03/19 04:34:14;;;;;;;1.87;1.70;;;2.70;99.90;;;;;;5014514;28;20169;-73
2022/03/19 04:36:40;;;;;;;10.00;2.90;;;2.60;99.90;;;;;;5014560;28;20179;-73
2022/03/19 04:39:07;;;;;;;3.17;1.70;;;2.60;99.90;;;;;;5014460;28;20184;-73
2022/03/19 04:41:34;;;;;;;11.10;2.07;;;2.60;99.90;;;;;;5014346;28;20407;-73
2022/03/19 04:44:00;;;;;;;2.50;2.23;;;2.60;99.90;;;;;;5014899;28;20423;-72
2022/03/19 04:46:26;;;;;;;3.87;1.57;;;2.60;99.90;;;;;;5014042;28;20532;-72
2022/03/19 04:48:52;;;;;;;3.13;2.93;;;2.50;99.90;;;;;;5014127;28;20315;-72
2022/03/19 04:51:19;;;;;;;2.03;1.80;;;2.50;99.90;;;;;;5014235;28;20164;-72
2022/03/19 04:53:52;;;;;;;9.27;4.40;;;2.40;99.90;;;;;;5014111;28;20408;-72
2022/03/19 04:56:19;;;;;;;4.20;2.43;;;2.40;99.90;;;;;;5014138;28;20862;-72
2022/03/19 04:58:45;;;;;;;3.20;1.77;;;2.40;99.90;;;;;;5014182;28;20883;-72
2022/03/19 05:01:11;;;;;;;2.27;2.07;;;2.30;99.90;;;;;;5014057;28;20498;-72
2022/03/19 05:03:36;;;;;;;3.13;2.40;;;2.30;99.90;;;;;;5013395;28;20168;-72
2022/03/19 05:06:02;;;;;;;3.23;1.90;;;2.30;99.90;;;;;;5013852;28;20239;-73
2022/03/19 05:08:28;;;;;;;12.13;2.67;;;2.30;99.90;;;;;;5013885;28;20196;-73
2022/03/19 05:13:38;;;;;;;3.07;2.37;;;2.30;99.90;;;;;;5014030;28;20180;-72
2022/03/19 05:16:03;;;;;;;5.50;1.50;;;2.20;99.90;;;;;;5013861;28;20419;-72
2022/03/19 05:18:29;;;;;;;8.80;3.17;;;2.20;99.90;;;;;;5013525;28;20627;-72
2022/03/19 05:20:56;;;;;;;6.13;1.67;;;2.20;99.90;;;;;;5013524;28;20168;-72
2022/03/19 05:23:22;;;;;;;2.50;2.30;;;2.20;99.90;;;;;;5013384;28;20164;-72
2022/03/19 05:25:47;;;;;;;1.67;1.57;;;2.20;99.90;;;;;;5013438;28;20455;-72
2022/03/19 05:28:13;;;;;;;5.93;2.00;;;2.20;99.90;;;;;;5013362;28;20271;-72
2022/03/19 05:30:38;;;;;;;6.77;2.10;;;2.20;99.90;;;;;;5013578;28;20175;-72
2022/03/19 05:33:04;;;;;;;6.63;2.03;;;2.20;99.90;;;;;;5013403;28;20849;-72
2022/03/19 05:35:30;;;;;;;3.40;2.40;;;2.20;99.90;;;;;;5013347;28;20255;-72
2022/03/19 05:37:59;;;;;;;1.73;1.53;;;2.20;99.90;;;;;;5013380;28;20567;-72
2022/03/19 05:40:25;;;;;;;2.87;2.57;;;2.20;99.90;;;;;;5013300;28;20430;-72
2022/03/19 05:42:50;;;;;;;2.43;1.97;;;2.30;99.90;;;;;;5013740;28;20412;-72
2022/03/19 05:45:16;;;;;;;3.67;2.80;;;2.20;99.90;;;;;;5013188;28;20465;-72
2022/03/19 05:47:43;;;;;;;4.27;2.43;;;2.30;99.90;;;;;;5013160;28;20172;-72
2022/03/19 05:50:09;;;;;;;3.80;2.20;;;2.30;99.90;;;;;;5013191;28;20177;-72
2022/03/19 05:52:35;;;;;;;2.20;1.80;;;2.30;99.90;;;;;;4995172;28;20446;-72
2022/03/19 05:55:00;;;;;;;2.40;1.50;;;2.40;99.90;;;;;;5012920;28;20450;-73
2022/03/19 05:57:26;;;;;;;2.03;1.87;;;2.40;99.90;;;;;;5012863;28;20160;-73
2022/03/19 05:59:51;;;;;;;4.50;2.10;;;2.40;99.90;;;;;;5012833;28;20270;-72
2022/03/19 06:02:16;;;;;;;3.33;2.30;;;2.50;99.90;;;;;;5012900;28;20175;-72
2022/03/19 06:04:42;;;;;;;3.10;2.63;;;2.60;99.90;;;;;;5012658;28;20195;-72
2022/03/19 06:07:07;;;;;;;3.73;1.87;;;2.60;99.90;;;;;;5012982;28;20176;-72
2022/03/19 06:09:33;;;;;;;2.60;1.43;;;2.70;99.90;;;;;;5012621;28;20678;-72
2022/03/19 06:11:58;;;;;;;7.50;2.70;;;3.10;99.90;;;;;;5012525;28;20199;-73
2022/03/19 06:14:24;;;;;;;12.80;2.40;;;3.80;99.90;;;;;;5011691;28;20172;-73
2022/03/19 06:16:50;;;;;;;6.50;2.53;;;4.40;99.90;;;;;;5013079;28;20255;-73
2022/03/19 06:19:16;;;;;;;3.00;2.00;;;4.70;99.90;;;;;;5012591;28;20437;-73
2022/03/19 06:21:42;;;;;;;1.87;1.77;;;5.00;99.90;;;;;;5011221;28;20647;-73
2022/03/19 06:24:09;;;;;;;3.30;1.77;;;5.30;99.90;;;;;;5012532;28;20415;-73
2022/03/19 06:26:35;;;;;;;4.20;1.30;;;5.50;99.90;;;;;;5012395;28;20198;-73
2022/03/19 06:29:01;;;;;;;1.63;1.27;;;6.00;99.90;;;;;;5012619;28;20778;-73
2022/03/19 06:31:27;;;;;;;1.47;1.37;;;6.40;99.90;;;;;;5012397;28;20421;-73
2022/03/19 06:33:52;;;;;;;1.83;1.70;;;6.90;99.90;;;;;;5012478;28;20219;-73
2022/03/19 06:39:02;;;;;;;1.83;1.17;;;7.20;99.90;;;;;;5012404;28;20202;-73
2022/03/19 06:41:28;;;;;;;3.53;1.00;;;7.20;99.90;;;;;;5012185;28;20415;-73
2022/03/19 06:43:53;;;;;;;3.23;1.97;;;7.20;99.90;;;;;;5012382;28;20466;-73
2022/03/19 06:46:19;;;;;;;3.10;1.73;;;6.90;99.90;;;;;;5012124;28;20193;-73
2022/03/19 06:48:46;;;;;;;3.23;1.30;;;7.10;99.90;;;;;;5011851;28;20218;-74
2022/03/19 06:51:12;;;;;;;1.87;1.40;;;7.70;99.90;;;;;;5015951;28;20427;-73
2022/03/19 06:53:38;;;;;;;3.20;1.90;;;8.10;99.90;;;;;;5011926;28;20952;-73
2022/03/19 06:56:05;;;;;;;3.80;1.50;;;8.10;99.90;;;;;;5011936;28;20175;-73
2022/03/19 06:58:32;;;;;;;1.73;1.20;;;7.90;99.90;;;;;;5012249;28;20188;-73
2022/03/19 07:00:57;;;;;;;5.47;1.17;;;7.60;99.90;;;;;;5011790;28;20489;-73
2022/03/19 07:03:23;;;;;;;3.40;1.37;;;7.90;99.90;;;;;;5011874;28;20503;-73
2022/03/19 07:05:49;;;;;;;7.73;1.50;;;8.70;99.90;;;;;;5011670;28;20199;-73
2022/03/19 07:08:14;;;;;;;3.50;1.10;;;9.30;99.90;;;;;;5011759;28;20774;-73
2022/03/19 07:10:40;;;;;;;6.67;1.67;;;8.70;99.90;;;;;;5011898;28;20173;-73
2022/03/19 07:13:06;;;;;;;1.67;1.40;;;8.30;99.90;;;;;;5012240;28;20591;-73
2022/03/19 07:15:31;;;;;;;3.30;1.47;;;8.30;99.90;;;;;;5014004;28;20635;-73
2022/03/19 07:18:00;;;;;;;2.90;1.57;;;8.40;99.90;;;;;;5015021;28;20188;-72
2022/03/19 07:20:25;;;;;;;1.27;0.97;;;9.00;99.90;;;;;;5015310;28;20545;-72
2022/03/19 07:22:54;;;;;;;2.80;1.00;;;9.60;99.90;;;;;;5013862;28;20408;-72
2022/03/19 07:25:24;;;;;;;1.13;0.97;;;10.00;99.90;;;;;;5011730;28;20210;-72
2022/03/19 07:27:51;;;;;;;5.33;1.30;;;10.60;99.90;;;;;;5012030;28;20759;-72
2022/03/19 07:30:17;;;;;;;2.93;1.50;;;10.90;99.90;;;;;;5011958;28;20400;-73
2022/03/19 07:32:43;;;;;;;3.00;1.60;;;10.40;99.90;;;;;;5011973;28;20909;-73
2022/03/19 07:35:09;;;;;;;1.10;0.97;;;10.80;99.90;;;;;;5011711;28;20905;-73
2022/03/19 07:37:37;;;;;;;1.87;1.40;;;11.00;99.90;;;;;;5011788;28;20243;-73
2022/03/19 07:40:04;;;;;;;5.17;1.70;;;10.70;99.90;;;;;;5011679;28;20418;-73
2022/03/19 07:42:30;;;;;;;2.23;1.20;;;11.20;99.90;;;;;;5011473;28;20487;-73
2022/03/19 07:44:55;;;;;;;2.90;1.10;;;11.10;99.90;;;;;;5011553;28;20404;-72
2022/03/19 07:47:21;;;;;;;2.07;0.70;;;10.30;99.90;;;;;;5011627;28;20215;-72
2022/03/19 07:49:46;;;;;;;1.63;1.30;;;11.10;99.90;;;;;;5037868;22;20219;-67
2022/03/19 07:52:12;;;;;;;3.90;1.13;;;11.40;99.90;;;;;;5030759;28;20168;-67
2022/03/19 07:54:38;;;;;;;3.23;1.20;;;11.90;99.90;;;;;;5030808;28;20531;-67
2022/03/19 07:57:04;;;;;;;3.27;1.30;;;12.30;99.90;;;;;;5030983;28;20186;-67
2022/03/19 07:59:30;;;;;;;3.40;1.53;;;11.70;99.90;;;;;;5030649;28;20200;-67
2022/03/19 08:01:56;;;;;;;1.33;1.00;;;11.90;99.90;;;;;;5030785;28;20905;-68
2022/03/19 08:04:24;;;;;;;2.43;1.30;;;11.80;99.90;;;;;;5030713;28;20407;-66
2022/03/19 08:06:54;;;;;;;1.30;0.80;;;10.90;99.90;;;;;;5031220;28;20300;-66
2022/03/19 08:09:21;;;;;;;1.63;1.00;;;12.00;99.90;;;;;;5030721;28;20462;-67
2022/03/19 08:11:50;;;;;;;5.57;1.00;;;12.20;99.90;;;;;;5030625;28;20401;-66
2022/03/19 08:14:17;;;;;;;1.10;1.00;;;12.30;99.90;;;;;;5030488;28;20845;-66
2022/03/19 08:16:43;;;;;;;3.70;1.23;;;11.70;99.90;;;;;;5030686;28;20559;-69
2022/03/19 08:19:11;;;;;;;1.40;1.20;;;12.50;99.90;;;;;;5030758;28;20485;-67
2022/03/19 08:21:36;;;;;;;3.83;1.57;;;11.80;99.90;;;;;;5030411;28;20902;-66
2022/03/19 08:24:02;;;;;;;2.90;1.20;;;12.10;99.90;;;;;;5030583;28;20426;-67
2022/03/19 08:26:27;;;;;;;4.63;1.13;;;11.90;99.90;;;;;;5030315;28;20254;-66
2022/03/19 08:28:53;;;;;;;1.90;1.20;;;11.70;99.90;;;;;;5030406;28;20658;-68
2022/03/19 08:31:18;;;;;;;3.27;0.90;;;11.00;99.90;;;;;;5030586;28;20196;-66
2022/03/19 08:33:44;;;;;;;4.27;1.10;;;11.20;99.90;;;;;;5030396;28;20706;-66
2022/03/19 08:36:09;;;;;;;1.20;1.03;;;11.90;99.90;;;;;;5030464;28;20173;-68
2022/03/19 08:41:19;;;;;;;3.17;1.40;;;11.10;99.90;;;;;;5034353;28;20278;-69
2022/03/19 08:43:44;;;;;;;2.60;1.50;;;10.80;99.90;;;;;;5033998;28;20779;-66
2022/03/19 08:46:11;;;;;;;2.10;1.20;;;11.40;99.90;;;;;;5033958;28;20245;-67
2022/03/19 08:48:36;;;;;;;2.90;1.33;;;10.80;99.90;;;;;;5033551;28;20253;-67
2022/03/19 08:51:48;;;;;;;4.20;1.23;;;11.00;99.90;;;;;;5034080;28;20410;-67
2022/03/19 08:53:49;;;;;;;1.17;1.07;;;11.80;99.90;;;;;;5022929;28;20555;-68
2022/03/19 08:56:15;;;;;;;4.53;1.23;;;11.80;99.90;;;;;;5033655;28;20904;-67
2022/03/19 08:58:41;;;;;;;4.00;1.47;;;11.40;99.90;;;;;;5033856;28;20587;-66
2022/03/19 09:01:06;;;;;;;2.57;1.07;;;11.50;99.90;;;;;;5033979;28;20468;-66
2022/03/19 09:03:33;;;;;;;2.97;1.30;;;11.40;99.90;;;;;;5033759;28;20176;-68
2022/03/19 09:05:59;;;;;;;2.47;1.30;;;11.30;99.90;;;;;;5033486;28;20195;-67
2022/03/19 09:08:25;;;;;;;8.80;1.43;;;11.40;99.90;;;;;;5033454;28;20513;-66
2022/03/19 09:10:51;;;;;;;3.60;0.90;;;11.60;99.90;;;;;;5033834;28;20564;-66
2022/03/19 09:13:17;;;;;;;3.73;1.20;;;11.60;99.90;;;;;;5033687;28;20512;-66
2022/03/19 09:15:42;;;;;;;3.30;1.13;;;11.90;99.90;;;;;;5033530;28;20181;-66
2022/03/19 09:18:08;;;;;;;2.50;1.43;;;11.80;99.90;;;;;;5033357;28;20179;-67
2022/03/19 09:20:33;;;;;;;1.43;1.33;;;12.20;99.90;;;;;;5033213;28;20710;-67
2022/03/19 09:22:59;;;;;;;3.50;1.17;;;12.10;99.90;;;;;;5032905;28;20182;-66
2022/03/19 09:25:25;;;;;;;0.90;0.90;;;12.10;99.90;;;;;;5033109;28;20238;-66
2022/03/19 09:27:50;;;;;;;2.93;1.10;;;12.00;99.90;;;;;;5033217;28;20223;-67
2022/03/19 09:30:16;;;;;;;2.53;1.33;;;11.80;99.90;;;;;;5033614;28;20560;-66
2022/03/19 09:32:41;;;;;;;2.37;1.30;;;12.10;99.90;;;;;;5033354;28;20223;-66
2022/03/19 09:35:07;;;;;;;2.37;1.23;;;12.30;99.90;;;;;;5032897;28;20248;-66
2022/03/19 09:37:33;;;;;;;1.67;1.00;;;12.20;99.90;;;;;;5033193;28;20339;-66
2022/03/19 09:39:59;;;;;;;2.03;1.20;;;12.10;99.90;;;;;;5032808;28;20967;-66
2022/03/19 09:42:27;;;;;;;2.33;1.77;;;11.90;99.90;;;;;;5032928;28;20196;-66
2022/03/19 09:44:52;;;;;;;2.23;1.17;;;11.80;99.90;;;;;;5032844;28;20720;-66
2022/03/19 09:47:18;;;;;;;4.00;1.20;;;11.70;99.90;;;;;;5032947;28;20498;-69
2022/03/19 09:49:43;;;;;;;3.00;1.50;;;11.30;99.90;;;;;;5032537;28;20254;-68
2022/03/19 09:52:12;;;;;;;1.40;1.03;;;11.40;99.90;;;;;;5032632;28;20207;-69
2022/03/19 09:54:37;;;;;;;1.97;1.20;;;11.50;99.90;;;;;;5032631;28;20168;-69
2022/03/19 09:57:03;;;;;;;1.33;1.10;;;11.00;99.90;;;;;;5032674;28;20929;-69
2022/03/19 09:59:29;;;;;;;1.33;1.23;;;10.80;99.90;;;;;;5032615;28;20564;-69
2022/03/19 10:01:55;;;;;;;1.07;0.97;;;10.70;99.90;;;;;;5032555;28;20168;-68
2022/03/19 10:04:21;;;;;;;1.63;1.43;;;10.60;99.90;;;;;;5032565;28;20838;-68
2022/03/19 10:09:47;;;;;;;1.37;1.27;;;10.40;99.90;;;;;;5032661;28;20195;-67
2022/03/19 10:12:25;;;;;;;1.50;1.40;;;10.20;99.90;;;;;;5032314;28;20414;-66
2022/03/19 10:14:56;;;;;;;4.70;1.43;;;10.00;99.90;;;;;;5032309;28;20423;-67
2022/03/19 10:17:36;;;;;;;1.40;1.30;;;10.20;99.90;;;;;;5032378;28;20500;-66
2022/03/19 10:20:09;;;;;;;1.53;1.43;;;10.10;99.90;;;;;;5032314;28;20784;-67
2022/03/19 10:22:37;;;;;;;6.27;1.40;;;10.00;99.90;;;;;;5032090;28;20472;-67
2022/03/19 10:25:07;;;;;;;1.30;1.20;;;10.00;99.90;;;;;;5031647;28;20410;-66
2022/03/19 10:27:35;;;;;;;3.83;1.33;;;9.90;99.90;;;;;;5032079;28;20411;-66
2022/03/19 10:30:03;;;;;;;1.57;1.30;;;9.90;99.90;;;;;;5031645;28;20459;-66
2022/03/19 10:32:29;;;;;;;1.27;1.10;;;9.80;99.90;;;;;;5031531;28;20394;-67
2022/03/19 10:34:55;;;;;;;1.80;1.47;;;9.90;99.90;;;;;;5031895;28;20405;-67
2022/03/19 10:37:35;;;;;;;2.40;1.60;;;9.90;99.90;;;;;;5031937;28;20680;-67
2022/03/19 10:40:01;;;;;;;1.57;1.20;;;10.00;99.90;;;;;;5031518;28;20425;-67
2022/03/19 10:42:35;;;;;;;2.27;1.43;;;10.10;99.90;;;;;;5031546;28;20402;-66
2022/03/19 10:45:01;;;;;;;2.17;1.30;;;10.30;99.90;;;;;;5031571;28;20422;-69
2022/03/19 10:47:26;;;;;;;1.90;1.70;;;10.40;99.90;;;;;;5031653;28;20418;-67
2022/03/19 10:49:59;;;;;;;3.20;1.63;;;10.50;99.90;;;;;;5031495;28;20628;-67
2022/03/19 10:52:26;;;;;;;1.43;1.13;;;10.50;99.90;;;;;;5031698;28;20533;-66
2022/03/19 10:54:52;;;;;;;2.33;1.80;;;10.40;99.90;;;;;;5031427;28;20421;-66
2022/03/19 10:57:17;;;;;;;1.80;1.53;;;10.50;99.90;;;;;;5031444;28;20398;-66
2022/03/19 10:59:43;;;;;;;2.60;1.50;;;10.50;99.90;;;;;;5031399;28;20789;-67
2022/03/19 11:02:11;;;;;;;4.10;1.83;;;10.60;99.90;;;;;;5031274;28;20182;-67
2022/03/19 11:04:38;;;;;;;1.13;1.10;;;10.50;99.90;;;;;;5031350;28;20195;-67
2022/03/19 11:07:05;;;;;;;4.17;1.57;;;10.40;99.90;;;;;;5031486;28;20446;-67
2022/03/19 11:09:34;;;;;;;3.07;1.53;;;10.70;99.90;;;;;;5031280;28;20419;-67
2022/03/19 11:12:02;;;;;;;1.67;1.17;;;10.90;99.90;;;;;;5031113;28;20398;-67
2022/03/19 11:14:29;;;;;;;5.40;1.70;;;10.80;99.90;;;;;;5031565;28;20420;-67
2022/03/19 11:17:23;;;;;;;5.90;2.00;;;10.90;99.90;;;;;;5031241;28;20455;-67
2022/03/19 11:19:50;;;;;;;3.10;1.40;;;10.80;99.90;;;;;;5031094;28;20450;-67
2022/03/19 11:22:15;;;;;;;4.17;1.63;;;11.10;99.90;;;;;;5031534;28;20410;-67
2022/03/19 11:24:48;;;;;;;1.67;1.33;;;11.10;99.90;;;;;;5030934;28;20417;-67
2022/03/19 11:27:15;;;;;;;2.40;1.23;;;11.10;99.90;;;;;;5031192;28;20199;-67
2022/03/19 11:29:41;;;;;;;1.23;1.10;;;11.10;99.90;;;;;;5031267;28;20433;-67
2022/03/19 11:32:07;;;;;;;1.10;1.00;;;11.00;99.90;;;;;;5031285;28;20398;-67
2022/03/19 11:34:46;;;;;;;3.50;2.77;;;11.00;99.90;;;;;;5031025;28;20395;-67
2022/03/19 11:37:13;;;;;;;2.23;1.50;;;10.90;99.90;;;;;;5031047;28;20171;-67
2022/03/19 11:39:38;;;;;;;3.27;1.80;;;10.70;99.90;;;;;;5031311;28;20494;-67
2022/03/19 11:42:08;;;;;;;1.60;1.33;;;10.50;99.90;;;;;;5030927;28;20915;-67
2022/03/19 11:44:47;;;;;;;1.83;1.47;;;10.40;99.90;;;;;;5031231;28;20306;-68
2022/03/19 11:47:17;;;;;;;4.20;2.10;;;10.30;99.90;;;;;;5030854;28;20503;-67
2022/03/19 11:49:52;;;;;;;1.30;1.20;;;10.30;99.90;;;;;;5030729;28;20446;-68
2022/03/19 11:52:24;;;;;;;1.73;1.63;;;10.30;99.90;;;;;;5030973;28;20394;-68
2022/03/19 11:55:03;;;;;;;7.17;1.80;;;10.40;99.90;;;;;;5030761;28;20424;-67
2022/03/19 11:57:46;;;;;;;4.10;2.07;;;10.50;99.90;;;;;;5030788;28;20410;-66
2022/03/19 12:00:20;;;;;;;2.63;2.10;;;10.30;99.90;;;;;;5030831;28;20422;-69
2022/03/19 12:03:02;;;;;;;2.60;2.13;;;10.50;99.90;;;;;;5030940;28;20741;-68
2022/03/19 12:05:28;;;;;;;2.90;2.50;;;10.30;99.90;;;;;;5030661;28;20594;-68
2022/03/19 12:07:55;;;;;;;2.07;1.93;;;10.20;99.90;;;;;;5030816;28;20400;-67
2022/03/19 12:10:24;;;;;;;7.30;2.40;;;10.20;99.90;;;;;;5030492;28;20427;-67
2022/03/19 12:12:50;;;;;;;4.27;3.00;;;10.20;99.90;;;;;;5031182;28;20927;-67
2022/03/19 12:15:34;;;;;;;3.90;2.50;;;10.30;99.90;;;;;;5034195;28;20424;-66
2022/03/19 12:18:27;;;;;;;2.47;1.47;;;10.50;99.90;;;;;;5034738;28;20492;-67
2022/03/19 12:21:05;;;;;;;3.60;2.30;;;10.80;99.90;;;;;;5034539;28;20421;-66
2022/03/19 12:23:55;;;;;;;8.57;2.77;;;10.60;99.90;;;;;;5034471;28;20409;-67
2022/03/19 12:26:23;;;;;;;3.60;2.57;;;10.60;99.90;;;;;;5034348;28;20826;-67
2022/03/19 12:29:02;;;;;;;3.70;2.50;;;10.40;99.90;;;;;;5034354;28;20426;-67
2022/03/19 12:31:31;;;;;;;4.43;2.97;;;10.10;99.90;;;;;;5034346;28;20923;-68
2022/03/19 12:33:57;;;;;;;3.33;2.73;;;10.20;99.90;;;;;;5034361;28;20406;-67
2022/03/19 12:36:22;;;;;;;15.10;3.67;;;10.00;99.90;;;;;;5034197;28;20479;-67
2022/03/19 12:38:50;;;;;;;6.17;3.07;;;9.90;99.90;;;;;;5034192;28;20195;-67
2022/03/19 12:41:24;;;;;;;2.77;2.57;;;9.90;99.90;;;;;;5033956;28;20163;-68
2022/03/19 12:43:50;;;;;;;2.60;2.40;;;9.90;99.90;;;;;;5034219;28;20411;-68
2022/03/19 12:46:42;;;;;;;3.07;2.70;;;10.00;99.90;;;;;;5033690;28;20459;-67
2022/03/19 12:49:12;;;;;;;3.27;2.83;;;9.80;99.90;;;;;;5029172;28;20466;-67
2022/03/19 12:51:45;;;;;;;6.30;3.37;;;9.80;99.90;;;;;;5034226;28;20422;-67
2022/03/19 12:54:31;;;;;;;4.20;3.77;;;9.80;99.90;;;;;;5034162;28;20398;-66
2022/03/19 12:57:10;;;;;;;9.27;4.77;;;9.70;99.90;;;;;;5033826;28;20494;-67
2022/03/19 12:59:37;;;;;;;8.30;5.30;;;9.60;99.90;;;;;;5033894;28;20422;-68
2022/03/19 13:02:03;;;;;;;7.70;4.73;;;9.70;99.90;;;;;;5033720;28;20412;-67
2022/03/19 13:04:30;;;;;;;8.67;4.97;;;9.60;99.90;;;;;;5033668;28;20519;-67
2022/03/19 13:06:57;;;;;;;9.73;6.07;;;9.80;99.90;;;;;;5033746;28;20608;-66